Airfield :
LOGIN :

Register | Disclaimer

   EN    FR    IT 

 










Legend :    VFR   Marginal VFR   IFR   Intensive IFR   Very Intensive IFR
Visi :
Ceiling :
>= 8 km
>= 3000ft
5 to 8 km
1000 to 3000 ft
1500m to 5 km
500 to 1000 ft
800 to 1500m
200 to 500 ft
< 800m
< 200 ft
Symbols :   Thunderstorms  Fog  Heavy snow  Heavy precipitations  Wind > 20 kt
SIGMETs :     Misc.  Thunderstorms  Icing  Turbulence  Mountain Waves  Volcanic Ashes







- Airport Elevation : 16 ft
- IATA code : SDR


LEXJ - Santander Cantabria

CURRENT METAR :
  • 191330Z 10006KT 060V150 CAVOK 15/07 Q1024

EXPIRED METARs :
  • 191300Z 10008KT 070V140 CAVOK 15/07 Q1024
  • 191230Z 09006KT 010V130 CAVOK 15/07 Q1024
  • 191200Z 10008KT 060V140 CAVOK 14/07 Q1025
  • 191130Z 09009KT 060V120 CAVOK 14/07 Q1025
  • 191100Z VRB01KT CAVOK 12/08 Q1025

TAF TAF LEXJ
Valid from the 19 at 09:00 until the 20 at 09:00 UTC


190800Z 1909/2009 VRB04KT CAVOK TX15/1914Z TN05/2006Z
TEMPO 1911/1919 08010KT
No reported NOTAMs for that airfield.



MET'MAP, your aeronautical weather chart ! - Copyright ORBIFLY December 2007 - Disclaimer

ORBIFLY MET'MAP TEAM :

Programming & Development : Alexandra Zaïnal
Concept & Development : Baudouin d'Aumeries
Co-Development & Prog : Marc-Olivier Méhu
Technical & hardware support : Manuel Goepfert

Contact : metmap@orbifly.com




SOURCES & CREDITS :

   NOAA